createdAt,value
2023-08-07T00:00:21.033Z,83.51
2023-08-07T00:03:08.953Z,83.59
2023-08-07T00:05:36.809Z,83.85
2023-08-07T00:08:06.362Z,83.26
2023-08-07T00:10:33.717Z,83.24
2023-08-07T00:13:01.496Z,83.35
2023-08-07T00:15:28.977Z,82.76
2023-08-07T00:17:56.866Z,83.14
2023-08-07T00:20:24.648Z,82.48
2023-08-07T00:22:52.655Z,82.96
2023-08-07T00:25:21.858Z,82.80
2023-08-07T00:27:50.348Z,82.36
2023-08-07T00:30:17.800Z,82.75
2023-08-07T00:32:46.070Z,82.29
2023-08-07T00:35:13.569Z,82.13
2023-08-07T00:37:41.394Z,82.06
2023-08-07T00:40:10.082Z,82.24
2023-08-07T00:42:39.307Z,82.21
2023-08-07T00:45:07.604Z,81.63
2023-08-07T00:47:35.642Z,82.41
2023-08-07T00:50:05.018Z,82.44
2023-08-07T00:52:34.026Z,82.54
2023-08-07T00:55:01.557Z,81.68
2023-08-07T00:57:29.605Z,81.10
2023-08-07T01:00:22.096Z,81.58
2023-08-07T01:02:53.402Z,81.59
2023-08-07T01:05:21.676Z,81.02
2023-08-07T01:07:49.853Z,81.17
2023-08-07T01:10:17.469Z,81.79
2023-08-07T01:12:53.247Z,81.66
2023-08-07T01:15:26.678Z,81.39
2023-08-07T01:17:56.934Z,81.60
2023-08-07T01:20:24.858Z,81.55
2023-08-07T01:22:54.022Z,81.33
2023-08-07T01:25:21.731Z,81.31
2023-08-07T01:27:56.280Z,80.42
2023-08-07T01:30:30.308Z,81.42
2023-08-07T01:33:05.819Z,81.50
2023-08-07T01:35:36.390Z,81.16
2023-08-07T01:38:10.229Z,81.27
2023-08-07T01:40:40.190Z,80.74
2023-08-07T01:43:08.398Z,80.47
2023-08-07T01:45:35.916Z,80.43
2023-08-07T01:48:04.284Z,80.01
2023-08-07T01:50:32.884Z,80.22
2023-08-07T01:53:00.738Z,80.38
2023-08-07T01:55:29.561Z,79.98
2023-08-07T01:57:57.413Z,79.91
2023-08-07T02:00:24.893Z,81.00
2023-08-07T02:02:57.378Z,82.24
2023-08-07T02:05:25.173Z,82.79
2023-08-07T02:07:52.923Z,83.86
2023-08-07T02:10:20.423Z,84.88
2023-08-07T02:12:53.363Z,85.72
2023-08-07T02:15:20.804Z,85.21
2023-08-07T02:17:48.574Z,85.13
2023-08-07T02:20:16.097Z,85.56
2023-08-07T02:22:43.920Z,85.24
2023-08-07T02:25:11.400Z,85.76
2023-08-07T02:27:39.392Z,85.28
2023-08-07T02:30:09.065Z,83.65
2023-08-07T02:32:36.962Z,84.01
2023-08-07T02:35:05.244Z,84.80
2023-08-07T02:37:32.956Z,85.11
2023-08-07T02:40:00.295Z,84.52
2023-08-07T02:42:28.094Z,85.58
2023-08-07T02:44:55.467Z,85.24
2023-08-07T02:47:24.761Z,85.60
2023-08-07T02:49:52.231Z,86.08
2023-08-07T02:52:20.065Z,86.38
2023-08-07T02:54:47.734Z,85.82
2023-08-07T02:57:15.578Z,85.91
2023-08-07T02:59:43.125Z,85.67
2023-08-07T03:02:10.959Z,86.10
2023-08-07T03:04:39.786Z,86.44
2023-08-07T03:07:07.673Z,86.47
2023-08-07T03:09:35.111Z,85.51
2023-08-07T03:12:03.553Z,86.27
2023-08-07T03:14:35.769Z,86.21
2023-08-07T03:17:03.799Z,85.91
2023-08-07T03:19:31.699Z,85.57
2023-08-07T03:22:04.931Z,85.19
2023-08-07T03:24:32.429Z,84.64
2023-08-07T03:27:00.287Z,84.63
2023-08-07T03:29:28.091Z,83.76
2023-08-07T03:31:55.898Z,84.40
2023-08-07T03:34:23.275Z,84.30
2023-08-07T03:36:51.188Z,85.00
2023-08-07T03:39:24.487Z,85.31
2023-08-07T03:41:52.435Z,84.44
2023-08-07T03:44:19.887Z,84.61
2023-08-07T03:46:47.756Z,84.29
2023-08-07T03:49:15.390Z,84.47
2023-08-07T03:51:43.279Z,84.60
2023-08-07T03:54:10.798Z,84.50
2023-08-07T03:56:40.007Z,84.82
2023-08-07T03:59:07.680Z,84.44
2023-08-07T04:01:35.478Z,84.99
2023-08-07T04:04:03.042Z,85.25
2023-08-07T04:06:30.968Z,85.24
2023-08-07T04:09:02.769Z,84.55
2023-08-07T04:11:30.573Z,84.33
2023-08-07T04:13:59.479Z,83.97
2023-08-07T04:16:27.293Z,83.64
2023-08-07T04:18:54.766Z,83.77
2023-08-07T04:21:22.690Z,84.50
2023-08-07T04:23:50.188Z,85.38
2023-08-07T04:26:18.030Z,84.67
2023-08-07T04:28:45.524Z,85.39
2023-08-07T04:31:14.932Z,84.61
2023-08-07T04:33:42.423Z,84.09
2023-08-07T04:36:14.369Z,84.43
2023-08-07T04:38:41.701Z,84.43
2023-08-07T04:41:09.609Z,84.98
2023-08-07T04:43:37.257Z,85.21
2023-08-07T04:46:05.141Z,84.47
2023-08-07T04:48:34.092Z,83.95
2023-08-07T04:51:02.018Z,84.75
2023-08-07T04:53:29.822Z,84.94
2023-08-07T04:55:57.682Z,84.97
2023-08-07T04:58:25.155Z,85.11
2023-08-07T05:00:56.731Z,85.24
2023-08-07T05:03:24.255Z,84.85
2023-08-07T05:05:59.563Z,84.97
2023-08-07T05:08:26.925Z,85.03
2023-08-07T05:10:54.716Z,85.80
2023-08-07T05:13:22.106Z,85.76
2023-08-07T05:15:50.191Z,85.96
2023-08-07T05:18:17.594Z,85.38
2023-08-07T05:20:45.423Z,84.78
2023-08-07T05:23:14.299Z,85.06
2023-08-07T05:25:42.111Z,83.92
2023-08-07T05:28:09.511Z,83.89
2023-08-07T05:30:37.615Z,84.40
2023-08-07T05:33:05.111Z,84.25
2023-08-07T05:35:33.163Z,84.93
2023-08-07T05:38:00.543Z,83.43
2023-08-07T05:40:29.709Z,83.30
2023-08-07T05:42:57.307Z,83.56
2023-08-07T05:45:25.074Z,83.70
2023-08-07T05:47:52.523Z,83.12
2023-08-07T05:50:20.383Z,82.14
2023-08-07T05:52:47.834Z,80.62
2023-08-07T05:55:15.833Z,81.42
2023-08-07T05:57:44.841Z,81.52
2023-08-07T06:00:13.324Z,81.74
2023-08-07T06:02:40.744Z,81.83
2023-08-07T06:05:13.365Z,81.66
2023-08-07T06:07:40.826Z,80.86
2023-08-07T06:10:09.361Z,81.36
2023-08-07T06:12:36.816Z,82.13
2023-08-07T06:15:11.215Z,82.53
2023-08-07T06:17:38.708Z,82.71
2023-08-07T06:20:10.413Z,82.04
2023-08-07T06:22:39.203Z,81.19
2023-08-07T06:25:07.919Z,81.78
2023-08-07T06:27:35.535Z,82.15
2023-08-07T06:30:03.771Z,82.86
2023-08-07T06:32:33.110Z,83.44
2023-08-07T06:35:00.937Z,83.85
2023-08-07T06:37:28.327Z,84.32
2023-08-07T06:39:56.075Z,84.68
2023-08-07T06:42:23.581Z,84.11
2023-08-07T06:44:51.544Z,84.56
2023-08-07T06:47:18.909Z,85.22
2023-08-07T06:49:48.102Z,84.50
2023-08-07T06:52:15.522Z,85.04
2023-08-07T06:54:43.328Z,85.17
2023-08-07T06:57:10.833Z,84.45
2023-08-07T06:59:38.611Z,82.67
2023-08-07T07:02:06.712Z,83.23
2023-08-07T07:04:34.504Z,83.29
2023-08-07T07:07:07.404Z,84.12
2023-08-07T07:09:38.046Z,81.74
2023-08-07T07:12:06.180Z,82.42
2023-08-07T07:14:34.271Z,82.52
2023-08-07T07:17:01.685Z,80.57
2023-08-07T07:19:29.581Z,78.22
2023-08-07T07:21:57.138Z,75.54
2023-08-07T07:24:26.547Z,75.51
2023-08-07T07:26:54.074Z,77.58
2023-08-07T07:29:21.771Z,77.88
2023-08-07T07:31:50.544Z,78.77
2023-08-07T07:34:24.382Z,77.52
2023-08-07T07:36:51.829Z,77.60
2023-08-07T07:39:19.724Z,78.68
2023-08-07T07:41:48.522Z,78.37
2023-08-07T07:44:16.424Z,77.08
2023-08-07T07:46:43.837Z,75.43
2023-08-07T07:49:11.695Z,76.27
2023-08-07T07:51:39.150Z,77.02
2023-08-07T07:56:37.431Z,74.77
2023-08-07T07:59:10.277Z,76.11
2023-08-07T08:01:37.769Z,75.70
2023-08-07T08:04:06.005Z,75.41
2023-08-07T08:06:33.518Z,74.12
2023-08-07T08:09:01.409Z,75.04
2023-08-07T08:11:28.871Z,73.98
2023-08-07T08:13:56.786Z,72.56
2023-08-07T08:16:25.796Z,73.19
2023-08-07T08:18:53.649Z,73.24
2023-08-07T08:21:20.993Z,71.51
2023-08-07T08:23:53.382Z,71.76
2023-08-07T08:26:21.057Z,71.49
2023-08-07T08:28:48.945Z,71.04
2023-08-07T08:31:16.339Z,72.08
2023-08-07T08:33:49.506Z,72.76
2023-08-07T08:36:16.901Z,71.21
2023-08-07T08:38:45.030Z,70.28
2023-08-07T08:41:12.639Z,71.19
2023-08-07T08:43:42.024Z,71.56
2023-08-07T08:46:14.793Z,70.92
2023-08-07T08:48:51.241Z,71.98
2023-08-07T08:51:20.504Z,70.81
2023-08-07T08:53:48.750Z,68.86
2023-08-07T08:56:16.998Z,67.37
2023-08-07T08:58:50.085Z,68.04
2023-08-07T09:01:19.263Z,68.02
2023-08-07T09:03:56.984Z,67.14
2023-08-07T09:06:24.768Z,65.36
2023-08-07T09:08:54.618Z,66.78
2023-08-07T09:11:22.165Z,65.65
2023-08-07T09:13:50.521Z,68.98
2023-08-07T09:16:19.000Z,67.02
2023-08-07T09:18:48.339Z,65.84
2023-08-07T09:21:15.976Z,64.19
2023-08-07T09:23:43.952Z,66.73
2023-08-07T09:26:12.250Z,59.53
2023-08-07T09:28:40.215Z,61.33
2023-08-07T09:31:08.105Z,58.82
2023-08-07T09:33:35.970Z,60.23
2023-08-07T09:36:09.744Z,58.86
2023-08-07T09:38:37.647Z,59.15
2023-08-07T09:41:05.376Z,59.75
2023-08-07T09:43:40.692Z,57.11
2023-08-07T09:46:08.810Z,57.31
2023-08-07T09:48:41.553Z,57.26
2023-08-07T09:51:14.445Z,56.94
2023-08-07T09:53:43.304Z,58.79
2023-08-07T09:56:10.748Z,59.28
2023-08-07T09:58:38.497Z,59.96
2023-08-07T10:01:06.079Z,58.27
2023-08-07T10:03:34.574Z,59.87
2023-08-07T10:06:02.624Z,58.42
2023-08-07T10:08:33.172Z,57.76
2023-08-07T10:11:01.337Z,57.55
2023-08-07T10:16:02.149Z,57.18
2023-08-07T10:18:30.079Z,55.17
2023-08-07T10:21:01.688Z,53.90
2023-08-07T10:23:35.738Z,54.78
2023-08-07T10:26:05.578Z,53.87
2023-08-07T10:28:36.969Z,50.96
2023-08-07T10:31:05.080Z,54.29
2023-08-07T10:33:33.733Z,51.80
2023-08-07T10:36:01.316Z,51.26
2023-08-07T10:38:31.096Z,51.47
2023-08-07T10:41:06.969Z,53.20
2023-08-07T10:43:38.413Z,51.09
2023-08-07T10:46:06.468Z,53.63
2023-08-07T10:48:39.986Z,54.49
2023-08-07T10:51:07.922Z,52.30
2023-08-07T10:53:38.273Z,51.50
2023-08-07T10:56:16.005Z,51.48
2023-08-07T10:58:49.121Z,53.95
2023-08-07T11:01:24.014Z,51.56
2023-08-07T11:03:53.253Z,51.59
2023-08-07T11:06:24.165Z,53.19
2023-08-07T11:08:52.214Z,52.27
2023-08-07T11:11:23.519Z,52.90
2023-08-07T11:13:51.754Z,52.14
2023-08-07T11:16:21.408Z,50.45
2023-08-07T11:18:50.497Z,52.64
2023-08-07T11:21:18.072Z,49.16
2023-08-07T11:23:50.368Z,49.70
2023-08-07T11:26:17.896Z,51.77
2023-08-07T11:28:47.275Z,54.18
2023-08-07T11:31:15.046Z,53.31
2023-08-07T11:33:42.986Z,49.99
2023-08-07T11:36:14.461Z,50.36
2023-08-07T11:38:44.260Z,51.61
2023-08-07T11:41:13.252Z,53.11
2023-08-07T11:43:41.916Z,53.06
2023-08-07T11:46:12.256Z,55.02
2023-08-07T11:48:41.134Z,58.21
2023-08-07T11:51:08.899Z,64.70
2023-08-07T11:53:38.303Z,67.95
2023-08-07T11:56:06.991Z,69.99
2023-08-07T11:58:36.442Z,70.77
2023-08-07T12:01:07.868Z,71.95
2023-08-07T12:03:38.377Z,74.33
2023-08-07T12:06:07.878Z,75.79
2023-08-07T12:08:37.174Z,73.14
2023-08-07T12:11:06.430Z,75.86
2023-08-07T12:13:38.199Z,73.70
2023-08-07T12:16:06.519Z,73.32
2023-08-07T12:18:51.992Z,74.22
2023-08-07T12:21:21.836Z,72.47
2023-08-07T12:23:50.043Z,73.41
2023-08-07T12:26:22.806Z,72.85
2023-08-07T12:28:58.214Z,71.45
2023-08-07T12:31:25.668Z,71.91
2023-08-07T12:34:35.472Z,70.78
2023-08-07T12:36:45.661Z,68.76
2023-08-07T12:39:13.525Z,67.00
2023-08-07T12:44:11.721Z,68.03
2023-08-07T12:46:40.253Z,66.52
2023-08-07T12:49:11.337Z,69.00
2023-08-07T12:51:38.779Z,67.94
2023-08-07T12:54:09.592Z,70.14
2023-08-07T12:56:37.018Z,72.15
2023-08-07T12:59:04.832Z,73.45
2023-08-07T13:01:32.534Z,74.52
2023-08-07T13:04:00.432Z,75.23
2023-08-07T13:06:33.343Z,74.11
2023-08-07T13:09:01.305Z,73.69
2023-08-07T13:11:28.827Z,72.50
2023-08-07T13:13:56.796Z,71.79
2023-08-07T13:16:24.537Z,72.43
2023-08-07T13:18:52.408Z,71.66
2023-08-07T13:21:19.903Z,69.50
2023-08-07T13:23:49.093Z,67.22
2023-08-07T13:26:16.649Z,66.65
2023-08-07T13:28:44.475Z,68.69
2023-08-07T13:31:11.994Z,66.66
2023-08-07T13:33:44.247Z,64.09
2023-08-07T13:36:11.658Z,62.12
2023-08-07T13:38:46.775Z,60.44
2023-08-07T13:41:16.550Z,60.95
2023-08-07T13:43:44.344Z,58.92
2023-08-07T13:46:11.866Z,60.82
2023-08-07T13:48:39.724Z,60.43
2023-08-07T13:51:07.224Z,59.14
2023-08-07T13:53:35.059Z,59.88
2023-08-07T13:56:02.540Z,61.51
2023-08-07T13:58:35.450Z,61.03
2023-08-07T14:01:02.894Z,61.47
2023-08-07T14:03:36.093Z,65.01
2023-08-07T14:06:03.928Z,66.46
2023-08-07T14:08:31.851Z,67.05
2023-08-07T14:10:59.371Z,66.59
2023-08-07T14:13:32.945Z,70.54
2023-08-07T14:16:00.471Z,68.95
2023-08-07T14:18:33.474Z,66.06
2023-08-07T14:21:03.285Z,64.10
2023-08-07T14:23:37.424Z,62.36
2023-08-07T14:26:04.804Z,60.34
2023-08-07T14:28:38.508Z,60.61
2023-08-07T14:31:08.561Z,59.34
2023-08-07T14:33:37.325Z,57.87
2023-08-07T14:36:05.501Z,58.80
2023-08-07T14:38:37.313Z,58.81
2023-08-07T14:41:04.985Z,58.11
2023-08-07T14:43:42.495Z,58.41
2023-08-07T14:46:10.069Z,57.83
2023-08-07T14:48:42.386Z,57.33
2023-08-07T14:51:10.000Z,57.63
2023-08-07T14:53:38.009Z,58.83
2023-08-07T14:56:05.489Z,59.11
2023-08-07T14:58:33.457Z,59.93
2023-08-07T15:01:02.411Z,60.34
2023-08-07T15:03:32.937Z,60.39
2023-08-07T15:06:06.799Z,59.97
2023-08-07T15:08:49.050Z,60.00
2023-08-07T15:14:05.778Z,60.30
2023-08-07T15:16:58.766Z,61.65
2023-08-07T15:19:26.369Z,60.87
2023-08-07T15:22:12.799Z,60.73
2023-08-07T15:24:43.220Z,61.18
2023-08-07T15:27:22.765Z,60.62
2023-08-07T15:29:50.279Z,60.79
2023-08-07T15:32:24.593Z,61.47
2023-08-07T15:34:56.750Z,61.65
2023-08-07T15:37:24.827Z,61.00
2023-08-07T15:39:52.477Z,60.28
2023-08-07T15:42:25.789Z,59.41
2023-08-07T15:44:58.783Z,60.01
2023-08-07T15:47:36.497Z,61.28
2023-08-07T15:50:08.172Z,61.67
2023-08-07T15:53:00.777Z,61.00
2023-08-07T15:55:34.765Z,60.75
2023-08-07T15:58:03.143Z,60.53
2023-08-07T16:00:36.234Z,60.52
2023-08-07T16:03:06.642Z,61.05
2023-08-07T16:05:35.553Z,61.57
2023-08-07T16:08:03.836Z,61.14
2023-08-07T16:10:36.775Z,61.59
2023-08-07T16:13:04.859Z,62.64
2023-08-07T16:15:32.837Z,61.50
2023-08-07T16:18:00.365Z,62.71
2023-08-07T16:23:36.724Z,63.25
2023-08-07T16:26:04.648Z,63.42
2023-08-07T16:31:33.546Z,66.20
2023-08-07T16:34:12.777Z,65.52
2023-08-07T16:39:21.725Z,65.46
2023-08-07T16:42:00.852Z,65.12
2023-08-07T16:51:49.925Z,65.93
2023-08-07T16:54:42.770Z,66.17
2023-08-07T16:57:10.395Z,67.34
2023-08-07T17:02:37.210Z,67.50
2023-08-07T17:05:10.821Z,68.56
2023-08-07T17:07:38.307Z,68.31
2023-08-07T17:10:07.694Z,68.49
2023-08-07T17:12:37.119Z,68.62
2023-08-07T17:15:15.774Z,68.92
2023-08-07T17:17:54.519Z,68.61
2023-08-07T17:20:42.790Z,68.99
2023-08-07T17:23:22.402Z,68.81
2023-08-07T17:26:02.825Z,68.94
2023-08-07T17:34:29.503Z,70.32
2023-08-07T17:37:01.817Z,70.68
2023-08-07T17:39:32.471Z,70.69
2023-08-07T17:42:05.616Z,70.29
2023-08-07T17:44:33.099Z,70.93
2023-08-07T17:49:59.923Z,71.53
2023-08-07T17:52:42.930Z,71.67
2023-08-07T17:55:10.682Z,71.80
2023-08-07T17:57:53.965Z,71.84
2023-08-07T18:00:26.823Z,71.95
2023-08-07T18:03:09.398Z,72.24
2023-08-07T18:05:47.800Z,72.23
2023-08-07T18:08:15.837Z,73.36
2023-08-07T18:10:48.771Z,72.35
2023-08-07T18:13:23.315Z,72.02
2023-08-07T18:15:50.900Z,71.71
2023-08-07T18:18:31.804Z,71.82
2023-08-07T18:21:13.827Z,72.24
2023-08-07T18:23:56.168Z,71.48
2023-08-07T18:29:56.775Z,71.36
2023-08-07T18:32:30.629Z,71.66
2023-08-07T18:34:58.412Z,71.26
2023-08-07T18:40:21.969Z,71.85
2023-08-07T18:45:50.463Z,72.16
2023-08-07T18:48:18.630Z,72.51
2023-08-07T18:50:50.785Z,73.03
2023-08-07T18:56:33.835Z,72.96
2023-08-07T18:59:07.830Z,73.32
2023-08-07T19:01:36.815Z,74.04
2023-08-07T19:07:18.097Z,74.19
2023-08-07T19:09:46.174Z,74.48
2023-08-07T19:12:13.724Z,74.78
2023-08-07T19:14:45.773Z,73.80
2023-08-07T19:17:14.793Z,73.63
2023-08-07T19:19:46.780Z,73.45
2023-08-07T19:22:16.966Z,73.60
2023-08-07T19:24:47.319Z,73.43
2023-08-07T19:27:14.974Z,73.32
2023-08-07T19:29:42.990Z,73.43
2023-08-07T19:32:11.201Z,72.49
2023-08-07T19:34:40.641Z,72.82
2023-08-07T19:37:08.253Z,72.82
2023-08-07T19:39:40.586Z,72.67
2023-08-07T19:42:08.896Z,67.75
2023-08-07T19:44:36.950Z,71.83
2023-08-07T19:47:10.242Z,62.07
2023-08-07T19:49:43.226Z,70.71
2023-08-07T19:52:10.872Z,71.02
2023-08-07T19:54:38.949Z,72.60
2023-08-07T19:57:06.756Z,71.14
2023-08-07T19:59:39.654Z,71.77
2023-08-07T20:02:07.616Z,72.38
2023-08-07T20:04:56.820Z,73.80
2023-08-07T20:07:24.531Z,72.67
2023-08-07T20:09:57.742Z,73.23
2023-08-07T20:12:25.284Z,73.33
2023-08-07T20:14:53.452Z,73.30
2023-08-07T20:17:21.109Z,72.39
2023-08-07T20:19:50.639Z,72.32
2023-08-07T20:22:18.381Z,72.40
2023-08-07T20:24:47.058Z,72.51
2023-08-07T20:27:14.715Z,72.31
2023-08-07T20:29:47.417Z,72.25
2023-08-07T20:32:15.172Z,72.52
2023-08-07T20:34:43.012Z,72.80
2023-08-07T20:37:12.217Z,72.62
2023-08-07T20:39:42.646Z,72.80
2023-08-07T20:42:10.653Z,72.14
2023-08-07T20:44:40.648Z,72.78
2023-08-07T20:47:14.184Z,71.25
2023-08-07T20:49:42.154Z,66.63
2023-08-07T20:52:11.190Z,68.53
2023-08-07T20:54:39.335Z,69.14
2023-08-07T20:57:07.520Z,67.30
2023-08-07T20:59:40.470Z,69.67
2023-08-07T21:02:08.196Z,69.57
2023-08-07T21:04:39.454Z,70.91
2023-08-07T21:07:10.925Z,71.37
2023-08-07T21:09:38.791Z,71.03
2023-08-07T21:12:07.432Z,72.97
2023-08-07T21:14:35.428Z,72.81
2023-08-07T21:17:06.472Z,72.58
2023-08-07T21:19:38.957Z,73.00
2023-08-07T21:22:11.484Z,73.46
2023-08-07T21:24:43.755Z,73.20
2023-08-07T21:27:13.893Z,73.65
2023-08-07T21:29:46.788Z,73.50
2023-08-07T21:32:14.207Z,74.20
2023-08-07T21:34:42.100Z,73.57
2023-08-07T21:37:13.978Z,73.94
2023-08-07T21:39:58.790Z,73.44
2023-08-07T21:42:26.334Z,74.20
2023-08-07T21:44:56.660Z,73.90
2023-08-07T21:47:24.308Z,74.01
2023-08-07T21:50:07.724Z,73.42
2023-08-07T21:52:46.303Z,72.55
2023-08-07T21:55:19.190Z,71.65
2023-08-07T21:57:49.776Z,70.46
2023-08-07T22:00:22.763Z,70.68
2023-08-07T22:02:50.321Z,72.93
2023-08-07T22:05:23.741Z,72.43
2023-08-07T22:07:52.820Z,72.46
2023-08-07T22:10:23.595Z,72.75
2023-08-07T22:12:52.704Z,72.21
2023-08-07T22:15:28.570Z,72.34
2023-08-07T22:18:02.832Z,72.73
2023-08-07T22:20:30.957Z,72.44
2023-08-07T22:23:11.766Z,72.37
2023-08-07T22:25:39.770Z,71.56
2023-08-07T22:28:14.775Z,72.04
2023-08-07T22:30:52.782Z,71.89
2023-08-07T22:33:20.621Z,71.70
2023-08-07T22:35:48.624Z,72.28
2023-08-07T22:38:25.793Z,71.56
2023-08-07T22:41:05.785Z,71.32
2023-08-07T22:43:38.857Z,71.59
2023-08-07T22:46:11.295Z,71.15
2023-08-07T22:48:41.488Z,70.39
2023-08-07T22:51:22.816Z,70.85
2023-08-07T22:53:51.794Z,70.72
2023-08-07T22:56:24.956Z,71.10
2023-08-07T22:58:52.819Z,71.36
2023-08-07T23:01:20.754Z,71.27
2023-08-07T23:03:48.288Z,71.57
2023-08-07T23:06:16.164Z,71.40
2023-08-07T23:08:43.618Z,71.35
2023-08-07T23:11:12.880Z,70.86
2023-08-07T23:13:42.780Z,71.06
2023-08-07T23:16:10.716Z,70.98
2023-08-07T23:18:45.759Z,71.38
2023-08-07T23:21:13.520Z,71.23
2023-08-07T23:23:41.095Z,70.87
2023-08-07T23:26:17.452Z,70.95
2023-08-07T23:28:45.194Z,70.86
2023-08-07T23:31:13.163Z,70.45
2023-08-07T23:33:40.473Z,70.97
2023-08-07T23:36:08.478Z,70.92
2023-08-07T23:38:36.103Z,70.85
2023-08-07T23:41:04.228Z,70.71
2023-08-07T23:43:37.431Z,70.72
2023-08-07T23:46:09.763Z,70.17
2023-08-07T23:48:37.235Z,70.68
2023-08-07T23:51:05.183Z,70.05
2023-08-07T23:53:32.695Z,69.85
2023-08-07T23:56:00.743Z,69.84
2023-08-07T23:58:28.143Z,69.73
